Time;durP1;ratioP1;P1;durP2;ratioP2;P2;SDS_P1;SDS_P2;PMS_P1;PMS_P2;Temp;Humidity;BMP_temperature;BMP_pressure;BME280_temperature;BME280_humidity;BME280_pressure;Samples;Min_cycle;Max_cycle;Signal;HPM_P1;HPM_P2
2022/09/23 00:00:13;;;;;;;5.65;5.35;;;;;;;8.78;nan;95268.88;5154244;27;20195;-70
2022/09/23 00:02:41;;;;;;;6.57;6.07;;;;;;;8.82;nan;95270.47;5154644;27;20200;-69
2022/09/23 00:05:10;;;;;;;5.75;5.38;;;;;;;8.84;nan;95268.75;5155133;27;20224;-69
2022/09/23 00:07:37;;;;;;;5.90;5.40;;;;;;;9.31;nan;95266.75;5154629;27;20238;-70
2022/09/23 00:10:07;;;;;;;5.85;5.53;;;;;;;9.62;nan;95258.34;5154743;27;20650;-69
2022/09/23 00:12:33;;;;;;;5.88;5.50;;;;;;;9.29;nan;95260.88;5154419;27;20191;-69
2022/09/23 00:15:00;;;;;;;6.22;5.63;;;;;;;9.20;nan;95256.88;5153875;27;20254;-69
2022/09/23 00:17:28;;;;;;;6.07;5.50;;;;;;;9.42;nan;95259.69;5154156;27;20669;-69
2022/09/23 00:19:55;;;;;;;5.88;5.55;;;;;;;9.42;nan;95244.47;5154752;27;20191;-70
2022/09/23 00:22:21;;;;;;;5.25;4.85;;;;;;;9.38;nan;95247.16;5154357;27;20203;-69
2022/09/23 00:24:48;;;;;;;6.03;5.53;;;;;;;9.38;nan;95252.22;5154095;27;20223;-69
2022/09/23 00:27:19;;;;;;;5.47;5.18;;;;;;;9.44;nan;95247.78;5154278;27;20196;-68
2022/09/23 00:29:46;;;;;;;6.28;5.88;;;;;;;9.40;nan;95246.22;5154590;27;20290;-67
2022/09/23 00:32:13;;;;;;;5.55;5.15;;;;;;;9.41;nan;95250.41;5154099;27;20232;-69
2022/09/23 00:34:40;;;;;;;5.50;5.20;;;;;;;9.45;nan;95238.47;5154784;27;20296;-68
2022/09/23 00:37:07;;;;;;;5.85;5.45;;;;;;;9.31;nan;95245.63;5154365;27;20660;-68
2022/09/23 00:39:34;;;;;;;5.72;5.10;;;;;;;9.49;nan;95247.69;5154516;27;20195;-67
2022/09/23 00:42:00;;;;;;;5.85;5.45;;;;;;;9.38;nan;95254.75;5154055;27;20252;-70
2022/09/23 00:44:49;;;;;;;6.45;5.95;;;;;;;9.18;nan;95250.16;5153594;27;20219;-67
2022/09/23 00:47:20;;;;;;;7.38;6.53;;;;;;;8.86;nan;95246.75;5153385;27;20203;-68
2022/09/23 00:49:52;;;;;;;5.90;5.40;;;;;;;8.83;nan;95246.81;5153799;27;20252;-70
2022/09/23 00:52:23;;;;;;;10.10;5.97;;;;;;;8.84;nan;95243.41;5153829;27;20196;-69
2022/09/23 00:54:53;;;;;;;6.20;5.80;;;;;;;8.66;nan;95246.34;5154602;27;20195;-69
2022/09/23 00:57:21;;;;;;;7.32;6.63;;;;;;;8.50;nan;95243.34;5153475;27;20196;-69
2022/09/23 00:59:50;;;;;;;7.13;6.53;;;;;;;8.48;nan;95241.72;5153596;27;20260;-70
2022/09/23 01:02:19;;;;;;;7.20;6.10;;;;;;;8.34;nan;95253.88;5153936;27;20203;-71
2022/09/23 01:04:48;;;;;;;6.00;5.53;;;;;;;8.46;nan;95246.81;5153444;27;20755;-69
2022/09/23 01:07:15;;;;;;;6.60;5.75;;;;;;;8.61;nan;95248.19;5153655;27;20288;-68
2022/09/23 01:09:42;;;;;;;5.30;4.90;;;;;;;8.59;nan;95247.38;5154413;27;20637;-68
2022/09/23 01:12:20;;;;;;;5.00;4.70;;;;;;;8.62;nan;95256.63;5153446;27;20729;-68
2022/09/23 01:14:56;;;;;;;6.75;6.15;;;;;;;8.47;nan;95250.19;5153865;27;20665;-69
2022/09/23 01:17:31;;;;;;;7.00;6.40;;;;;;;8.57;nan;95244.06;5154032;27;20199;-68
2022/09/23 01:20:14;;;;;;;5.53;5.22;;;;;;;8.76;nan;95255.41;5153774;27;20199;-69
2022/09/23 01:22:49;;;;;;;5.50;5.10;;;;;;;8.80;nan;95257.00;5154287;27;20196;-69
2022/09/23 01:25:35;;;;;;;5.20;4.90;;;;;;;8.81;nan;95248.53;5153639;27;20279;-69
2022/09/23 01:28:20;;;;;;;5.53;5.13;;;;;;;8.68;nan;95246.31;5153467;27;20199;-70
2022/09/23 01:30:57;;;;;;;6.20;5.80;;;;;;;8.79;nan;95250.28;5153186;27;20510;-70
2022/09/23 01:33:29;;;;;;;5.57;5.18;;;;;;;9.12;nan;95247.81;5153806;27;20259;-69
2022/09/23 01:36:07;;;;;;;5.72;5.20;;;;;;;9.29;nan;95245.66;5153129;27;20192;-70
2022/09/23 01:38:45;;;;;;;4.90;4.60;;;;;;;9.41;nan;95254.66;5153576;27;20195;-70
2022/09/23 01:41:21;;;;;;;5.45;5.05;;;;;;;9.43;nan;95242.75;5153062;27;20251;-69
2022/09/23 01:43:57;;;;;;;5.43;5.03;;;;;;;9.13;nan;95252.00;5153364;27;20199;-69
2022/09/23 01:46:30;;;;;;;5.75;5.35;;;;;;;9.15;nan;95247.72;5153290;27;20283;-69
2022/09/23 01:49:02;;;;;;;5.85;5.45;;;;;;;9.24;nan;95247.47;5153090;27;20195;-68
2022/09/23 01:51:34;;;;;;;6.47;5.95;;;;;;;9.11;nan;95256.28;5153641;27;20252;-70
2022/09/23 01:54:09;;;;;;;5.65;5.25;;;;;;;8.98;nan;95254.91;5153814;27;20729;-68
2022/09/23 01:56:42;;;;;;;5.90;5.50;;;;;;;8.76;nan;95254.59;5155218;27;20212;-69
2022/09/23 01:59:14;;;;;;;6.05;5.75;;;;;;;8.70;nan;95245.41;5157908;27;20195;-69
2022/09/23 02:01:49;;;;;;;5.72;5.13;;;;;;;8.66;nan;95251.41;5157172;27;20195;-69
2022/09/23 02:04:21;;;;;;;7.50;6.90;;;;;;;9.10;nan;95249.53;5157188;27;20663;-70
2022/09/23 02:06:54;;;;;;;5.85;5.53;;;;;;;8.95;nan;95249.91;5156836;27;20322;-69
2022/09/23 02:09:24;;;;;;;6.80;6.30;;;;;;;8.95;nan;95255.81;5157306;27;20248;-69
2022/09/23 02:11:57;;;;;;;6.50;6.10;;;;;;;8.72;nan;95256.34;5157930;27;20256;-70
2022/09/23 02:14:29;;;;;;;6.50;5.82;;;;;;;8.53;nan;95250.03;5164542;27;20692;-67
2022/09/23 02:17:03;;;;;;;6.15;5.70;;;;;;;8.41;nan;95248.59;5164499;27;20217;-70
2022/09/23 02:19:34;;;;;;;5.57;5.18;;;;;;;8.65;nan;95257.38;5158202;27;20665;-69
2022/09/23 02:22:08;;;;;;;6.22;5.72;;;;;;;8.81;nan;95252.78;5157024;27;20636;-70
2022/09/23 02:24:38;;;;;;;5.78;5.47;;;;;;;8.96;nan;95246.50;5157189;27;20242;-68
2022/09/23 02:27:14;;;;;;;5.88;5.38;;;;;;;9.09;nan;95250.41;5156786;27;20634;-69
2022/09/23 02:29:48;;;;;;;5.63;5.13;;;;;;;8.79;nan;95250.28;5157405;27;20195;-69
2022/09/23 02:32:20;;;;;;;5.80;5.30;;;;;;;8.52;nan;95261.03;5157292;27;20206;-68
2022/09/23 02:35:01;;;;;;;6.35;5.75;;;;;;;8.64;nan;95260.78;5157104;27;20191;-69
2022/09/23 02:37:37;;;;;;;6.30;5.80;;;;;;;8.89;nan;95257.69;5156687;27;20199;-70
2022/09/23 02:40:14;;;;;;;4.85;4.55;;;;;;;9.04;nan;95254.75;5156771;27;20321;-71
2022/09/23 02:42:49;;;;;;;5.88;5.28;;;;;;;9.07;nan;95250.44;5156320;27;20281;-69
2022/09/23 02:45:16;;;;;;;5.07;4.78;;;;;;;9.08;nan;95252.13;5156241;27;20219;-71
2022/09/23 02:47:51;;;;;;;5.88;5.47;;;;;;;8.93;nan;95256.72;5156583;27;20200;-70
2022/09/23 02:50:18;;;;;;;6.28;5.88;;;;;;;9.00;nan;95258.22;5156071;27;20733;-70
2022/09/23 02:52:45;;;;;;;6.25;5.70;;;;;;;8.92;nan;95258.41;5156512;27;20195;-70
2022/09/23 02:55:15;;;;;;;6.88;6.30;;;;;;;8.91;nan;95261.81;5156450;27;20256;-69
2022/09/23 02:57:42;;;;;;;6.30;5.70;;;;;;;8.98;nan;95263.34;5156216;27;20199;-70
2022/09/23 03:00:11;;;;;;;6.90;6.30;;;;;;;8.83;nan;95264.56;5156482;27;20222;-71
2022/09/23 03:02:55;;;;;;;6.70;6.10;;;;;;;8.65;nan;95262.44;5156015;27;20200;-70
2022/09/23 03:05:29;;;;;;;6.63;6.03;;;;;;;8.66;nan;95261.56;5155897;27;20212;-68
2022/09/23 03:08:11;;;;;;;5.22;4.93;;;;;;;8.65;nan;95262.44;5155622;27;20215;-70
2022/09/23 03:10:46;;;;;;;5.97;5.57;;;;;;;8.58;nan;95270.22;5155732;27;20194;-69
2022/09/23 03:13:25;;;;;;;5.72;5.32;;;;;;;8.33;nan;95269.91;5156234;27;20705;-69
2022/09/23 03:16:00;;;;;;;4.80;4.40;;;;;;;8.38;nan;95263.06;5155429;27;20203;-70
2022/09/23 03:18:36;;;;;;;5.63;5.32;;;;;;;8.50;nan;95257.72;5155574;27;20643;-69
2022/09/23 03:21:07;;;;;;;5.35;5.00;;;;;;;8.62;nan;95265.06;5156579;27;20195;-69
2022/09/23 03:23:37;;;;;;;6.78;6.28;;;;;;;8.59;nan;95254.97;5156189;27;20252;-70
2022/09/23 03:26:10;;;;;;;5.60;5.10;;;;;;;8.68;nan;95276.72;5156367;27;20220;-69
2022/09/23 03:28:39;;;;;;;5.53;5.22;;;;;;;8.48;nan;95274.63;5156042;27;20196;-69
2022/09/23 03:31:07;;;;;;;6.07;5.68;;;;;;;8.51;nan;95272.88;5155752;27;20227;-70
2022/09/23 03:33:39;;;;;;;5.82;5.32;;;;;;;8.63;nan;95259.13;5156486;27;20206;-69
2022/09/23 03:38:59;;;;;;;5.50;5.18;;;;;;;8.72;nan;95269.03;5155434;27;20363;-69
2022/09/23 03:41:32;;;;;;;5.50;5.18;;;;;;;8.73;nan;95275.75;5155708;27;20195;-69
2022/09/23 03:44:00;;;;;;;5.68;5.35;;;;;;;8.49;nan;95272.06;5155741;27;20196;-69
2022/09/23 03:46:29;;;;;;;5.45;5.05;;;;;;;8.56;nan;95271.94;5155142;27;20219;-70
2022/09/23 03:49:04;;;;;;;6.03;5.63;;;;;;;8.57;nan;95274.44;5155450;27;20195;-70
2022/09/23 03:51:30;;;;;;;6.45;5.63;;;;;;;8.74;nan;95269.81;5154865;27;20661;-70
2022/09/23 03:53:57;;;;;;;5.95;5.55;;;;;;;8.65;nan;95275.13;5155728;27;20195;-71
2022/09/23 03:56:24;;;;;;;9.32;6.20;;;;;;;8.50;nan;95283.03;5154687;27;20902;-70
2022/09/23 03:58:51;;;;;;;5.93;5.53;;;;;;;8.55;nan;95275.34;5154838;27;20622;-68
2022/09/23 04:01:17;;;;;;;5.50;5.10;;;;;;;8.55;nan;95277.88;5154641;27;20191;-66
2022/09/23 04:03:44;;;;;;;7.20;6.45;;;;;;;8.56;nan;95287.97;5154507;27;20203;-69
2022/09/23 04:06:13;;;;;;;7.13;6.18;;;;;;;8.48;nan;95282.25;5154452;27;20231;-68
2022/09/23 04:08:39;;;;;;;7.38;6.72;;;;;;;8.25;nan;95287.75;5154628;27;20624;-69
2022/09/23 04:11:06;;;;;;;14.73;11.45;;;;;;;8.28;nan;95280.09;5154849;27;20252;-68
2022/09/23 04:13:34;;;;;;;11.02;9.93;;;;;;;8.24;nan;95275.13;5154052;27;20722;-68
2022/09/23 04:16:01;;;;;;;9.40;8.50;;;;;;;8.08;nan;95292.34;5154272;27;20220;-69
2022/09/23 04:18:27;;;;;;;8.68;7.82;;;;;;;8.12;nan;95293.97;5154464;27;20195;-68
2022/09/23 04:20:58;;;;;;;9.50;8.68;;;;;;;8.13;nan;95296.47;5154035;27;20669;-69
2022/09/23 04:23:26;;;;;;;9.30;8.27;;;;;;;;;;5153970;27;20278;-69
2022/09/23 04:25:53;;;;;;;9.02;8.35;;;;;;;;;;5153871;27;20600;-68
2022/09/23 04:28:20;;;;;;;9.77;8.77;;;;;;;7.98;nan;95294.22;5153355;27;20279;-69
2022/09/23 04:30:47;;;;;;;13.48;11.65;;;;;;;8.03;nan;95296.66;5152865;27;20732;-69
2022/09/23 04:33:16;;;;;;;12.18;10.88;;;;;;;8.16;nan;95298.94;5152754;27;20202;-69
2022/09/23 04:35:42;;;;;;;11.15;10.05;;;;;;;8.17;nan;95308.16;5154000;27;20195;-74
2022/09/23 04:38:10;;;;;;;14.50;10.85;;;;;;;8.27;nan;95297.88;5154092;27;20202;-69
2022/09/23 04:40:39;;;;;;;10.98;9.57;;;;;;;8.25;nan;95305.50;5153639;27;20680;-70
2022/09/23 04:43:05;;;;;;;9.05;8.15;;;;;;;8.32;nan;95311.28;5152742;27;20223;-69
2022/09/23 04:45:32;;;;;;;13.07;9.73;;;;;;;8.36;nan;95307.84;5154395;27;20220;-71
2022/09/23 04:47:59;;;;;;;12.50;11.20;;;;;;;8.37;nan;95324.72;5153853;27;20771;-69
2022/09/23 04:50:26;;;;;;;10.52;9.63;;;;;;;8.34;nan;95323.06;5152504;27;20264;-69
2022/09/23 04:52:53;;;;;;;10.50;8.90;;;;;;;8.40;nan;95317.88;5153244;27;20203;-69
2022/09/23 04:55:21;;;;;;;9.95;9.05;;;;;;;8.37;nan;95327.25;5152667;27;20198;-68
2022/09/23 04:57:49;;;;;;;8.57;7.93;;;;;;;8.49;nan;95321.91;5153429;27;20195;-70
2022/09/23 05:00:16;;;;;;;9.38;8.55;;;;;;;8.55;nan;95321.78;5153095;27;20204;-70
2022/09/23 05:02:44;;;;;;;8.35;7.65;;;;;;;8.50;nan;95326.09;5153153;27;20244;-69
2022/09/23 05:05:10;;;;;;;8.35;7.55;;;;;;;8.66;nan;95327.41;5153665;27;20200;-67
2022/09/23 05:07:37;;;;;;;8.52;7.78;;;;;;;8.82;nan;95333.84;5153349;27;20239;-70
2022/09/23 05:10:04;;;;;;;10.95;7.53;;;;;;;8.85;nan;95332.94;5153589;27;20196;-69
2022/09/23 05:12:31;;;;;;;8.05;7.35;;;;;;;8.80;nan;95333.03;5153967;27;20202;-69
2022/09/23 05:14:59;;;;;;;9.93;7.78;;;;;;;8.86;nan;95335.44;5153492;27;20217;-69
2022/09/23 05:17:30;;;;;;;9.75;8.73;;;;;;;8.97;nan;95335.19;5153469;27;20195;-68
2022/09/23 05:19:57;;;;;;;9.13;7.43;;;;;;;9.02;nan;95335.06;5153677;27;20201;-70
2022/09/23 05:22:25;;;;;;;11.70;7.88;;;;;;;8.89;nan;95329.47;5152964;27;20200;-68
2022/09/23 05:24:52;;;;;;;9.25;6.85;;;;;;;8.99;nan;95332.63;5154152;27;20255;-69
2022/09/23 05:27:19;;;;;;;7.85;7.15;;;;;;;9.09;nan;95341.69;5158334;27;20250;-68
2022/09/23 05:29:46;;;;;;;9.52;7.80;;;;;;;8.78;nan;95333.94;5162271;27;20635;-69
2022/09/23 05:32:15;;;;;;;13.00;9.07;;;;;;;8.76;nan;95336.50;5162302;27;20223;-65
2022/09/23 05:34:41;;;;;;;14.82;8.85;;;;;;;8.85;nan;95335.47;5154833;27;20278;-69
2022/09/23 05:37:08;;;;;;;10.60;8.25;;;;;;;8.89;nan;95342.16;5153476;27;20202;-70
2022/09/23 05:39:35;;;;;;;9.07;7.13;;;;;;;9.17;nan;95348.22;5154358;27;20200;-69
2022/09/23 05:42:02;;;;;;;7.93;7.13;;;;;;;9.25;nan;95350.59;5153594;27;20199;-69
2022/09/23 05:44:29;;;;;;;7.90;7.28;;;;;;;9.47;nan;95351.72;5153183;27;20251;-68
2022/09/23 05:46:55;;;;;;;12.15;7.78;;;;;;;9.46;nan;95350.06;5153726;27;20223;-67
2022/09/23 05:49:23;;;;;;;9.80;8.80;;;;;;;9.44;nan;95341.66;5152742;27;20244;-68
2022/09/23 05:51:50;;;;;;;9.23;8.32;;;;;;;9.39;nan;95343.50;5154069;27;20256;-68
2022/09/23 05:54:17;;;;;;;9.23;8.43;;;;;;;9.55;nan;95341.41;5153070;27;20248;-69
2022/09/23 05:56:44;;;;;;;9.00;7.75;;;;;;;9.87;nan;95338.88;5153801;27;20198;-68
2022/09/23 05:59:11;;;;;;;10.55;7.88;;;;;;;10.15;nan;95331.31;5153516;27;20738;-68
2022/09/23 06:01:38;;;;;;;8.18;7.35;;;;;;;10.55;nan;95331.06;5152629;27;20199;-64
2022/09/23 06:04:06;;;;;;;9.95;6.38;;;;;;;11.03;nan;95337.28;5153353;27;20223;-70
2022/09/23 06:06:37;;;;;;;6.80;6.10;;;;;;;11.42;nan;95327.53;5135545;27;20261;-69
2022/09/23 06:09:04;;;;;;;7.35;5.60;;;;;;;11.52;nan;95327.19;5153301;27;20196;-70
2022/09/23 06:11:32;;;;;;;7.03;5.40;;;;;;;11.62;nan;95327.72;5152851;27;20249;-71
2022/09/23 06:14:00;;;;;;;5.15;4.60;;;;;;;11.89;nan;95331.06;5153534;27;20195;-67
2022/09/23 06:16:29;;;;;;;4.88;4.57;;;;;;;12.52;nan;95325.41;5154334;27;20922;-70
2022/09/23 06:18:56;;;;;;;5.45;4.95;;;;;;;13.23;nan;95326.13;5154998;27;20199;-69
2022/09/23 06:21:22;;;;;;;5.70;5.28;;;;;;;14.15;nan;95330.78;5155285;27;20200;-69
2022/09/23 06:23:51;;;;;;;50.10;7.57;;;;;;;15.15;nan;95326.25;5154175;27;20196;-67
2022/09/23 06:26:17;;;;;;;5.30;4.88;;;;;;;15.48;nan;95321.28;5152800;27;20299;-69
2022/09/23 06:28:45;;;;;;;4.30;4.10;;;;;;;14.45;nan;95324.38;5153142;27;20200;-68
2022/09/23 06:31:14;;;;;;;5.57;5.18;;;;;;;13.08;nan;95326.69;5158800;27;20203;-69
2022/09/23 06:33:41;;;;;;;14.98;5.63;;;;;;;12.44;nan;95329.13;5151428;27;20191;-69
2022/09/23 06:36:08;;;;;;;5.18;4.88;;;;;;;12.19;nan;95335.09;5152374;27;20708;-69
2022/09/23 06:38:39;;;;;;;6.97;5.18;;;;;;;12.30;nan;95333.91;5153271;27;20226;-68
2022/09/23 06:41:07;;;;;;;6.07;5.50;;;;;;;12.19;nan;95339.34;5152663;27;20249;-67
2022/09/23 06:43:34;;;;;;;6.97;6.38;;;;;;;11.80;nan;95331.41;5153014;27;20672;-69
2022/09/23 06:46:02;;;;;;;5.90;5.40;;;;;;;11.96;nan;95329.97;5155798;27;20219;-68
2022/09/23 06:48:30;;;;;;;4.82;4.55;;;;;;;11.79;nan;95340.75;5155717;27;20231;-69
2022/09/23 06:51:01;;;;;;;5.60;5.28;;;;;;;12.42;nan;95341.06;5156174;27;20709;-68
2022/09/23 06:53:30;;;;;;;4.38;4.07;;;;;;;14.58;nan;95324.69;5156245;27;20205;-71
2022/09/23 06:56:01;;;;;;;4.85;4.40;;;;;;;17.32;nan;95327.03;5155928;27;20286;-68
2022/09/23 06:58:30;;;;;;;4.88;4.30;;;;;;;18.65;nan;95319.34;5155651;27;20203;-68
2022/09/23 07:01:01;;;;;;;4.18;3.97;;;;;;;20.22;nan;95322.13;5155736;27;20604;-66
2022/09/23 07:03:27;;;;;;;4.57;4.18;;;;;;;21.11;nan;95325.41;5155830;27;20210;-68
2022/09/23 07:05:54;;;;;;;3.60;3.40;;;;;;;19.58;nan;95331.50;5154871;27;20701;-69
2022/09/23 07:08:21;;;;;;;4.10;3.90;;;;;;;18.87;nan;95334.28;5155411;27;20196;-68
2022/09/23 07:10:51;;;;;;;4.82;4.35;;;;;;;18.87;nan;95337.69;5155643;27;20196;-68
2022/09/23 07:13:18;;;;;;;4.80;4.40;;;;;;;19.29;nan;95331.63;5155619;27;20256;-69
2022/09/23 07:15:50;;;;;;;4.18;3.97;;;;;;;19.13;nan;95335.25;5155324;27;20251;-67
2022/09/23 07:18:17;;;;;;;5.07;4.78;;;;;;;17.43;nan;95334.16;5155523;27;20204;-68
2022/09/23 07:20:45;;;;;;;4.28;3.90;;;;;;;16.93;nan;95348.03;5155077;27;20200;-68
2022/09/23 07:23:12;;;;;;;4.70;4.40;;;;;;;18.15;nan;95340.34;5155489;27;20275;-68
2022/09/23 07:25:38;;;;;;;4.45;4.15;;;;;;;19.67;nan;95325.78;5155276;27;20264;-69
2022/09/23 07:28:05;;;;;;;3.70;3.50;;;;;;;21.06;nan;95341.22;5155333;27;20219;-68
2022/09/23 07:30:35;;;;;;;4.05;3.75;;;;;;;21.62;nan;95331.22;5155147;27;20738;-68
2022/09/23 07:33:05;;;;;;;4.15;3.95;;;;;;;20.31;nan;95342.97;5155178;27;20584;-68
2022/09/23 07:35:32;;;;;;;4.30;4.05;;;;;;;19.45;nan;95349.50;5154966;27;20199;-67
2022/09/23 07:37:59;;;;;;;5.10;4.28;;;;;;;18.76;nan;95357.31;5155435;27;20195;-69
2022/09/23 07:40:26;;;;;;;4.60;4.22;;;;;;;19.43;nan;95353.94;5155039;27;20290;-67
2022/09/23 07:42:55;;;;;;;4.50;4.20;;;;;;;20.92;nan;95346.56;5154838;27;20605;-68
2022/09/23 07:45:22;;;;;;;4.00;3.70;;;;;;;20.07;nan;95344.59;5155075;27;20196;-68
2022/09/23 07:47:49;;;;;;;4.75;4.38;;;;;;;18.12;nan;95356.78;5155525;27;20353;-69
2022/09/23 07:50:18;;;;;;;5.53;3.78;;;;;;;19.45;nan;95346.94;5154664;27;20299;-68
2022/09/23 07:52:44;;;;;;;3.55;3.35;;;;;;;21.49;nan;95351.16;5154531;27;20861;-70
2022/09/23 07:55:13;;;;;;;4.30;3.67;;;;;;;20.82;nan;95342.94;5154089;27;20278;-67
2022/09/23 07:57:40;;;;;;;4.20;4.00;;;;;;;19.35;nan;95353.56;5154744;27;20636;-69
2022/09/23 08:00:08;;;;;;;6.35;5.78;;;;;;;17.89;nan;95360.69;5154375;27;20195;-70
2022/09/23 08:02:34;;;;;;;3.97;3.78;;;;;;;16.38;nan;95362.06;5154184;27;20248;-67
2022/09/23 08:05:02;;;;;;;3.90;3.60;;;;;;;15.64;nan;95355.50;5154659;27;20664;-70
2022/09/23 08:07:33;;;;;;;4.10;3.90;;;;;;;15.20;nan;95361.91;5153726;27;20299;-70
2022/09/23 08:10:00;;;;;;;4.13;3.83;;;;;;;16.41;nan;95369.63;5155457;27;20196;-68
2022/09/23 08:12:29;;;;;;;4.35;3.80;;;;;;;17.73;nan;95356.50;5154781;27;20626;-68
2022/09/23 08:14:56;;;;;;;3.40;3.10;;;;;;;19.21;nan;95359.63;5154539;27;20196;-67
2022/09/23 08:17:22;;;;;;;3.58;3.28;;;;;;;19.31;nan;95359.84;5155068;27;20252;-68
2022/09/23 08:19:49;;;;;;;3.08;2.80;;;;;;;17.91;nan;95358.03;5154268;27;20741;-69
2022/09/23 08:22:16;;;;;;;4.07;3.33;;;;;;;17.21;nan;95364.53;5154906;27;20199;-67
2022/09/23 08:24:44;;;;;;;3.60;3.40;;;;;;;17.66;nan;95359.44;5157098;27;20276;-68
2022/09/23 08:27:11;;;;;;;3.70;3.50;;;;;;;18.17;nan;95347.06;5154999;27;20216;-68
2022/09/23 08:29:38;;;;;;;3.60;3.30;;;;;;;18.02;nan;95350.53;5155965;27;20208;-70
2022/09/23 08:32:05;;;;;;;3.33;3.08;;;;;;;16.64;nan;95353.88;5156388;27;20195;-69
2022/09/23 08:34:32;;;;;;;3.75;3.55;;;;;;;15.95;nan;95359.13;5156057;27;20252;-70
2022/09/23 08:36:58;;;;;;;3.25;3.08;;;;;;;16.49;nan;95352.94;5155303;27;20187;-70
2022/09/23 08:39:25;;;;;;;4.35;3.08;;;;;;;17.45;nan;95350.31;5153816;27;20207;-69
2022/09/23 08:42:06;;;;;;;3.60;3.40;;;;;;;17.09;nan;95344.63;5154159;27;20196;-69
2022/09/23 08:44:45;;;;;;;3.13;2.90;;;;;;;16.08;nan;95355.06;5156267;27;20291;-70
2022/09/23 08:47:18;;;;;;;3.58;3.38;;;;;;;15.50;nan;95355.31;5159056;27;20242;-69
2022/09/23 08:49:54;;;;;;;3.22;3.05;;;;;;;15.50;nan;95350.19;5159280;27;20202;-68
2022/09/23 08:52:28;;;;;;;7.72;3.15;;;;;;;15.47;nan;95349.50;5155765;27;20191;-69
2022/09/23 08:54:55;;;;;;;3.35;3.15;;;;;;;15.30;nan;95353.72;5155022;27;20200;-70
2022/09/23 08:57:34;;;;;;;3.08;2.88;;;;;;;15.05;nan;95347.25;5154983;27;20669;-68
2022/09/23 09:00:02;;;;;;;3.10;2.90;;;;;;;15.18;nan;95343.22;5154986;27;20248;-68
2022/09/23 09:02:36;;;;;;;2.90;2.70;;;;;;;15.83;nan;95341.81;5155688;27;20200;-70
2022/09/23 09:05:09;;;;;;;67.47;36.38;;;;;;;16.82;nan;95339.28;5156255;27;20199;-73
2022/09/23 09:07:38;;;;;;;14.20;9.35;;;;;;;17.28;nan;95324.75;5153624;27;21013;-68
2022/09/23 09:10:15;;;;;;;4.78;4.38;;;;;;;16.99;nan;95337.44;5156018;27;20200;-70
2022/09/23 09:12:46;;;;;;;3.10;2.90;;;;;;;17.84;nan;95333.56;5155253;27;20195;-69
2022/09/23 09:15:16;;;;;;;3.30;3.00;;;;;;;17.73;nan;95325.66;5153291;27;20191;-70
2022/09/23 09:17:52;;;;;;;4.05;3.70;;;;;;;18.55;nan;95331.09;5154724;27;20729;-69
2022/09/23 09:20:23;;;;;;;3.75;2.70;;;;;;;19.35;nan;95333.78;5152978;27;20629;-67
2022/09/23 09:22:54;;;;;;;2.95;2.75;;;;;;;19.42;nan;95333.41;5154000;27;20200;-68
2022/09/23 09:25:40;;;;;;;7.18;6.22;;;;;;;18.03;nan;95326.47;5152948;27;20206;-69
2022/09/23 09:28:15;;;;;;;2.72;2.50;;;;;;;18.31;nan;95336.75;5152932;27;20218;-69
2022/09/23 09:30:44;;;;;;;2.92;2.70;;;;;;;18.98;nan;95337.03;5152809;27;20676;-68
2022/09/23 09:33:16;;;;;;;2.50;2.40;;;;;;;18.70;nan;95327.59;5153301;27;20294;-68
2022/09/23 09:36:01;;;;;;;2.50;2.30;;;;;;;19.26;nan;95321.50;5152791;27;20579;-68
2022/09/23 09:38:28;;;;;;;2.90;2.67;;;;;;;19.06;nan;95333.97;5153038;27;20622;-69
2022/09/23 09:41:01;;;;;;;2.75;2.38;;;;;;;18.46;nan;95329.88;5152532;27;20199;-67
2022/09/23 09:43:29;;;;;;;3.28;2.97;;;;;;;17.90;nan;95335.81;5152700;27;20195;-68
2022/09/23 09:46:07;;;;;;;2.63;2.53;;;;;;;18.02;nan;95333.34;5152759;27;20224;-69
2022/09/23 09:48:38;;;;;;;2.58;2.47;;;;;;;18.53;nan;95332.94;5152594;27;20314;-67
2022/09/23 09:51:18;;;;;;;8.00;3.22;;;;;;;18.29;nan;95332.66;5152962;27;20256;-69
2022/09/23 09:53:45;;;;;;;2.60;2.42;;;;;;;17.96;nan;95335.44;5153664;27;20301;-66
2022/09/23 09:56:15;;;;;;;2.40;2.30;;;;;;;17.42;nan;95329.94;5152969;27;20256;-67
2022/09/23 09:58:46;;;;;;;2.42;2.33;;;;;;;17.38;nan;95333.59;5152889;27;20287;-69
2022/09/23 10:01:21;;;;;;;4.55;2.40;;;;;;;17.46;nan;95333.16;5152353;27;20199;-70
2022/09/23 10:03:50;;;;;;;2.40;2.30;;;;;;;17.27;nan;95330.81;5152498;27;20202;-68
2022/09/23 10:06:20;;;;;;;3.05;2.95;;;;;;;16.91;nan;95331.88;5152620;27;20303;-67
2022/09/23 10:09:02;;;;;;;2.60;2.50;;;;;;;17.00;nan;95328.84;5152422;27;20215;-68
2022/09/23 10:11:29;;;;;;;2.55;2.42;;;;;;;16.98;nan;95330.66;5152533;27;20203;-68
2022/09/23 10:14:12;;;;;;;2.28;2.17;;;;;;;16.95;nan;95328.25;5151913;27;20195;-69
2022/09/23 10:16:40;;;;;;;2.03;1.92;;;;;;;17.03;nan;95325.28;5152341;27;20286;-69
2022/09/23 10:19:17;;;;;;;2.28;2.17;;;;;;;16.94;nan;95318.91;5155236;27;20223;-69
2022/09/23 10:21:50;;;;;;;2.35;2.25;;;;;;;16.79;nan;95321.47;5156266;27;20664;-69
2022/09/23 10:24:22;;;;;;;2.47;2.38;;;;;;;16.88;nan;95324.34;5156541;27;20199;-68
2022/09/23 10:26:55;;;;;;;2.53;2.42;;;;;;;17.03;nan;95321.88;5156565;27;20286;-70
2022/09/23 10:29:29;;;;;;;2.47;2.38;;;;;;;17.13;nan;95313.56;5157375;27;20199;-68
2022/09/23 10:32:18;;;;;;;2.55;2.30;;;;;;;16.84;nan;95306.63;5156411;27;20244;-69
2022/09/23 10:34:49;;;;;;;2.30;2.20;;;;;;;16.83;nan;95310.09;5156561;27;20286;-68
2022/09/23 10:37:23;;;;;;;2.25;2.15;;;;;;;17.16;nan;95302.31;5155882;27;20231;-69
2022/09/23 10:48:39;;;;;;;1.60;1.60;;;;;;;17.72;nan;95290.59;5129915;27;20337;-67
2022/09/23 10:51:19;;;;;;;1.40;1.40;;;;;;;17.65;nan;95290.13;5156105;27;20199;-68
2022/09/23 10:53:58;;;;;;;1.75;1.65;;;;;;;17.70;nan;95277.00;5156249;27;20199;-71
2022/09/23 10:56:34;;;;;;;1.45;1.45;;;;;;;17.73;nan;95281.97;5156029;27;20685;-69
2022/09/23 10:59:47;;;;;;;3.58;1.60;;;;;;;17.75;nan;95285.28;5156436;27;20275;-70
2022/09/23 11:02:40;;;;;;;2.00;1.90;;;;;;;17.59;nan;95275.00;5156010;27;20192;-70
2022/09/23 11:05:31;;;;;;;1.95;1.85;;;;;;;17.61;nan;95273.19;5155600;27;20204;-68
2022/09/23 11:08:10;;;;;;;1.40;1.40;;;;;;;17.64;nan;95276.44;5155563;27;20284;-69
2022/09/23 11:10:50;;;;;;;1.40;1.40;;;;;;;17.68;nan;95272.78;5155693;27;20203;-69
2022/09/23 11:13:23;;;;;;;3.60;1.33;;;;;;;17.94;nan;95260.97;5155715;27;20294;-69
2022/09/23 11:16:01;;;;;;;1.92;1.90;;;;;;;18.06;nan;95264.56;5155893;27;20196;-68
2022/09/23 11:18:46;;;;;;;2.22;1.60;;;;;;;18.14;nan;95259.78;5155578;27;20326;-69
2022/09/23 11:21:39;;;;;;;1.80;1.70;;;;;;;18.00;nan;95254.66;5155342;27;20576;-72
2022/09/23 11:24:32;;;;;;;1.80;1.70;;;;;;;18.23;nan;95248.94;5155620;27;20227;-68
2022/09/23 11:27:12;;;;;;;1.90;1.80;;;;;;;18.20;nan;95258.59;5155378;27;20199;-69
2022/09/23 11:30:07;;;;;;;5.10;1.95;;;;;;;18.16;nan;95257.13;5154053;27;20571;-68
2022/09/23 11:32:53;;;;;;;1.92;1.83;;;;;;;18.19;nan;95249.22;5155062;27;20287;-68
2022/09/23 11:35:26;;;;;;;3.13;2.05;;;;;;;18.14;nan;95244.34;5154309;27;20740;-68
2022/09/23 11:37:58;;;;;;;1.92;1.83;;;;;;;18.33;nan;95244.06;5154816;27;20244;-69
2022/09/23 11:40:31;;;;;;;3.15;2.10;;;;;;;18.33;nan;95241.47;5154501;27;20685;-68
2022/09/23 11:43:01;;;;;;;1.73;1.70;;;;;;;18.20;nan;95238.84;5154767;27;20207;-71
2022/09/23 11:45:33;;;;;;;1.33;1.20;;;;;;;18.01;nan;95235.72;5154707;27;20199;-70
2022/09/23 11:48:05;;;;;;;2.42;1.77;;;;;;;18.09;nan;95241.22;5154869;27;20712;-67
2022/09/23 11:50:38;;;;;;;1.40;1.40;;;;;;;18.09;nan;95233.50;5154254;27;20252;-67
2022/09/23 11:53:11;;;;;;;2.05;1.90;;;;;;;18.18;nan;95235.53;5155098;27;20199;-69
2022/09/23 11:55:44;;;;;;;1.85;1.75;;;;;;;18.32;nan;95227.78;5154365;27;20863;-68
2022/09/23 11:58:17;;;;;;;3.15;1.90;;;;;;;18.42;nan;95229.81;5155204;27;20275;-69
2022/09/23 12:00:51;;;;;;;1.77;1.70;;;;;;;18.25;nan;95229.09;5154556;27;20192;-67
2022/09/23 12:03:25;;;;;;;1.58;1.55;;;;;;;18.14;nan;95226.34;5157698;27;20747;-68
2022/09/23 12:06:01;;;;;;;2.08;1.98;;;;;;;18.19;nan;95239.75;5159658;27;20231;-66
2022/09/23 12:08:31;;;;;;;1.80;1.70;;;;;;;18.14;nan;95246.91;5155263;27;20223;-69
2022/09/23 12:11:08;;;;;;;3.28;1.83;;;;;;;17.94;nan;95245.53;5154124;27;20267;-70
2022/09/23 12:13:45;;;;;;;4.45;1.80;;;;;;;17.48;nan;95247.38;5154212;27;20665;-70
2022/09/23 12:16:38;;;;;;;2.15;2.05;;;;;;;17.20;nan;95248.13;5154434;27;20556;-69
2022/09/23 12:19:20;;;;;;;2.10;2.00;;;;;;;16.88;nan;95236.25;5154077;27;20192;-69
2022/09/23 12:22:00;;;;;;;2.10;2.00;;;;;;;16.89;nan;95233.59;5154576;27;20226;-69
2022/09/23 12:24:43;;;;;;;1.98;1.80;;;;;;;17.02;nan;95227.78;5154779;27;20259;-69